sensor_id;sensor_type;location;lat;lon;timestamp;P1;durP1;ratioP1;P2;durP2;ratioP2
54372;SDS011;40271;48.798;10.178;2022-08-21T00:01:35;1.90;;;1.70;;
54372;SDS011;40271;48.798;10.178;2022-08-21T00:04:05;2.72;;;2.15;;
54372;SDS011;40271;48.798;10.178;2022-08-21T00:06:31;4.38;;;2.03;;
54372;SDS011;40271;48.798;10.178;2022-08-21T00:08:59;2.38;;;1.70;;
54372;SDS011;40271;48.798;10.178;2022-08-21T00:11:25;6.40;;;1.83;;
54372;SDS011;40271;48.798;10.178;2022-08-21T00:13:52;2.20;;;1.73;;
54372;SDS011;40271;48.798;10.178;2022-08-21T00:16:18;5.03;;;2.25;;
54372;SDS011;40271;48.798;10.178;2022-08-21T00:18:44;1.83;;;1.40;;
54372;SDS011;40271;48.798;10.178;2022-08-21T00:21:13;2.80;;;1.60;;
54372;SDS011;40271;48.798;10.178;2022-08-21T00:23:39;3.17;;;1.95;;
54372;SDS011;40271;48.798;10.178;2022-08-21T00:26:05;3.35;;;1.80;;
54372;SDS011;40271;48.798;10.178;2022-08-21T00:28:31;3.63;;;1.73;;
54372;SDS011;40271;48.798;10.178;2022-08-21T00:30:58;3.17;;;1.50;;
54372;SDS011;40271;48.798;10.178;2022-08-21T00:33:24;2.03;;;1.50;;
54372;SDS011;40271;48.798;10.178;2022-08-21T00:35:51;3.13;;;1.63;;
54372;SDS011;40271;48.798;10.178;2022-08-21T00:38:17;6.70;;;1.70;;
54372;SDS011;40271;48.798;10.178;2022-08-21T00:43:11;3.08;;;1.80;;
54372;SDS011;40271;48.798;10.178;2022-08-21T00:45:37;2.67;;;1.70;;
54372;SDS011;40271;48.798;10.178;2022-08-21T00:48:04;2.80;;;1.85;;
54372;SDS011;40271;48.798;10.178;2022-08-21T00:50:31;3.38;;;1.70;;
54372;SDS011;40271;48.798;10.178;2022-08-21T00:52:57;2.83;;;1.88;;
54372;SDS011;40271;48.798;10.178;2022-08-21T00:55:24;3.47;;;1.90;;
54372;SDS011;40271;48.798;10.178;2022-08-21T00:57:52;2.80;;;1.90;;
54372;SDS011;40271;48.798;10.178;2022-08-21T01:00:23;5.88;;;1.60;;
54372;SDS011;40271;48.798;10.178;2022-08-21T01:02:51;3.20;;;1.70;;
54372;SDS011;40271;48.798;10.178;2022-08-21T01:05:17;4.68;;;2.03;;
54372;SDS011;40271;48.798;10.178;2022-08-21T01:07:43;1.63;;;1.48;;
54372;SDS011;40271;48.798;10.178;2022-08-21T01:10:10;3.15;;;1.88;;
54372;SDS011;40271;48.798;10.178;2022-08-21T01:12:36;4.18;;;2.00;;
54372;SDS011;40271;48.798;10.178;2022-08-21T01:15:03;3.35;;;1.98;;
54372;SDS011;40271;48.798;10.178;2022-08-21T01:17:29;3.30;;;1.90;;
54372;SDS011;40271;48.798;10.178;2022-08-21T01:20:00;5.00;;;2.00;;
54372;SDS011;40271;48.798;10.178;2022-08-21T01:22:26;2.47;;;1.77;;
54372;SDS011;40271;48.798;10.178;2022-08-21T01:24:52;2.20;;;1.90;;
54372;SDS011;40271;48.798;10.178;2022-08-21T01:27:18;2.53;;;1.83;;
54372;SDS011;40271;48.798;10.178;2022-08-21T01:29:46;2.95;;;2.20;;
54372;SDS011;40271;48.798;10.178;2022-08-21T01:32:15;3.50;;;2.00;;
54372;SDS011;40271;48.798;10.178;2022-08-21T01:34:43;2.10;;;1.90;;
54372;SDS011;40271;48.798;10.178;2022-08-21T01:37:10;2.80;;;1.83;;
54372;SDS011;40271;48.798;10.178;2022-08-21T01:39:36;3.72;;;2.25;;
54372;SDS011;40271;48.798;10.178;2022-08-21T01:42:03;5.10;;;2.20;;
54372;SDS011;40271;48.798;10.178;2022-08-21T01:44:29;4.03;;;2.40;;
54372;SDS011;40271;48.798;10.178;2022-08-21T01:46:55;4.45;;;2.40;;
54372;SDS011;40271;48.798;10.178;2022-08-21T01:49:23;2.85;;;2.40;;
54372;SDS011;40271;48.798;10.178;2022-08-21T01:51:49;3.70;;;2.30;;
54372;SDS011;40271;48.798;10.178;2022-08-21T01:54:15;3.08;;;2.17;;
54372;SDS011;40271;48.798;10.178;2022-08-21T01:56:42;3.85;;;2.40;;
54372;SDS011;40271;48.798;10.178;2022-08-21T01:59:08;2.65;;;2.10;;
54372;SDS011;40271;48.798;10.178;2022-08-21T02:01:35;4.68;;;2.30;;
54372;SDS011;40271;48.798;10.178;2022-08-21T02:04:01;4.10;;;2.25;;
54372;SDS011;40271;48.798;10.178;2022-08-21T02:06:27;3.10;;;2.20;;
54372;SDS011;40271;48.798;10.178;2022-08-21T02:08:53;3.50;;;2.40;;
54372;SDS011;40271;48.798;10.178;2022-08-21T02:11:19;4.35;;;2.40;;
54372;SDS011;40271;48.798;10.178;2022-08-21T02:13:45;3.58;;;2.30;;
54372;SDS011;40271;48.798;10.178;2022-08-21T02:16:12;5.40;;;2.92;;
54372;SDS011;40271;48.798;10.178;2022-08-21T02:18:38;2.65;;;2.13;;
54372;SDS011;40271;48.798;10.178;2022-08-21T02:21:04;3.00;;;1.90;;
54372;SDS011;40271;48.798;10.178;2022-08-21T02:23:31;3.47;;;1.90;;
54372;SDS011;40271;48.798;10.178;2022-08-21T02:25:58;3.28;;;2.25;;
54372;SDS011;40271;48.798;10.178;2022-08-21T02:28:24;5.65;;;2.40;;
54372;SDS011;40271;48.798;10.178;2022-08-21T02:30:50;4.45;;;2.30;;
54372;SDS011;40271;48.798;10.178;2022-08-21T02:33:17;2.78;;;2.00;;
54372;SDS011;40271;48.798;10.178;2022-08-21T02:35:43;2.70;;;2.10;;
54372;SDS011;40271;48.798;10.178;2022-08-21T02:38:11;3.17;;;1.98;;
54372;SDS011;40271;48.798;10.178;2022-08-21T02:40:39;2.95;;;2.25;;
54372;SDS011;40271;48.798;10.178;2022-08-21T02:43:06;3.92;;;2.15;;
54372;SDS011;40271;48.798;10.178;2022-08-21T02:45:32;4.20;;;2.40;;
54372;SDS011;40271;48.798;10.178;2022-08-21T02:48:00;4.00;;;2.30;;
54372;SDS011;40271;48.798;10.178;2022-08-21T02:50:28;4.00;;;2.40;;
54372;SDS011;40271;48.798;10.178;2022-08-21T02:52:55;2.58;;;2.10;;
54372;SDS011;40271;48.798;10.178;2022-08-21T02:55:22;3.97;;;2.30;;
54372;SDS011;40271;48.798;10.178;2022-08-21T02:57:48;4.60;;;2.50;;
54372;SDS011;40271;48.798;10.178;2022-08-21T03:00:14;3.03;;;2.38;;
54372;SDS011;40271;48.798;10.178;2022-08-21T03:02:40;3.15;;;2.38;;
54372;SDS011;40271;48.798;10.178;2022-08-21T03:05:07;4.50;;;2.28;;
54372;SDS011;40271;48.798;10.178;2022-08-21T03:07:34;3.53;;;2.08;;
54372;SDS011;40271;48.798;10.178;2022-08-21T03:10:00;2.63;;;2.22;;
54372;SDS011;40271;48.798;10.178;2022-08-21T03:12:27;4.05;;;2.53;;
54372;SDS011;40271;48.798;10.178;2022-08-21T03:14:53;6.38;;;2.60;;
54372;SDS011;40271;48.798;10.178;2022-08-21T03:17:19;4.20;;;2.40;;
54372;SDS011;40271;48.798;10.178;2022-08-21T03:19:45;3.88;;;2.72;;
54372;SDS011;40271;48.798;10.178;2022-08-21T03:22:11;3.22;;;2.03;;
54372;SDS011;40271;48.798;10.178;2022-08-21T03:24:37;4.15;;;2.50;;
54372;SDS011;40271;48.798;10.178;2022-08-21T03:27:03;7.07;;;2.55;;
54372;SDS011;40271;48.798;10.178;2022-08-21T03:29:29;3.08;;;2.38;;
54372;SDS011;40271;48.798;10.178;2022-08-21T03:31:55;3.30;;;2.60;;
54372;SDS011;40271;48.798;10.178;2022-08-21T03:34:21;6.28;;;2.53;;
54372;SDS011;40271;48.798;10.178;2022-08-21T03:36:47;2.83;;;2.20;;
54372;SDS011;40271;48.798;10.178;2022-08-21T03:39:14;4.10;;;2.35;;
54372;SDS011;40271;48.798;10.178;2022-08-21T03:41:40;3.08;;;2.50;;
54372;SDS011;40271;48.798;10.178;2022-08-21T03:44:06;4.18;;;2.40;;
54372;SDS011;40271;48.798;10.178;2022-08-21T03:46:32;4.35;;;2.20;;
54372;SDS011;40271;48.798;10.178;2022-08-21T03:48:59;3.88;;;2.35;;
54372;SDS011;40271;48.798;10.178;2022-08-21T03:51:25;4.38;;;2.70;;
54372;SDS011;40271;48.798;10.178;2022-08-21T03:53:51;4.45;;;2.72;;
54372;SDS011;40271;48.798;10.178;2022-08-21T03:56:17;4.93;;;2.45;;
54372;SDS011;40271;48.798;10.178;2022-08-21T03:58:43;4.70;;;2.50;;
54372;SDS011;40271;48.798;10.178;2022-08-21T04:01:09;4.50;;;2.20;;
54372;SDS011;40271;48.798;10.178;2022-08-21T04:03:36;4.80;;;2.67;;
54372;SDS011;40271;48.798;10.178;2022-08-21T04:06:03;5.13;;;2.17;;
54372;SDS011;40271;48.798;10.178;2022-08-21T04:08:29;3.80;;;2.88;;
54372;SDS011;40271;48.798;10.178;2022-08-21T04:10:55;3.45;;;2.30;;
54372;SDS011;40271;48.798;10.178;2022-08-21T04:13:23;4.32;;;2.00;;
54372;SDS011;40271;48.798;10.178;2022-08-21T04:15:49;4.70;;;2.45;;
54372;SDS011;40271;48.798;10.178;2022-08-21T04:18:15;5.97;;;2.65;;
54372;SDS011;40271;48.798;10.178;2022-08-21T04:20:41;4.15;;;2.35;;
54372;SDS011;40271;48.798;10.178;2022-08-21T04:23:08;5.15;;;2.38;;
54372;SDS011;40271;48.798;10.178;2022-08-21T04:25:34;4.20;;;2.65;;
54372;SDS011;40271;48.798;10.178;2022-08-21T04:28:00;4.35;;;2.60;;
54372;SDS011;40271;48.798;10.178;2022-08-21T04:30:27;3.42;;;2.60;;
54372;SDS011;40271;48.798;10.178;2022-08-21T04:32:53;3.97;;;2.30;;
54372;SDS011;40271;48.798;10.178;2022-08-21T04:35:20;4.30;;;2.83;;
54372;SDS011;40271;48.798;10.178;2022-08-21T04:37:46;4.43;;;2.75;;
54372;SDS011;40271;48.798;10.178;2022-08-21T04:40:13;6.03;;;2.65;;
54372;SDS011;40271;48.798;10.178;2022-08-21T04:42:43;4.60;;;2.85;;
54372;SDS011;40271;48.798;10.178;2022-08-21T04:45:15;7.63;;;2.72;;
54372;SDS011;40271;48.798;10.178;2022-08-21T04:47:41;3.97;;;2.60;;
54372;SDS011;40271;48.798;10.178;2022-08-21T04:50:08;5.55;;;2.72;;
54372;SDS011;40271;48.798;10.178;2022-08-21T04:52:34;3.35;;;2.78;;
54372;SDS011;40271;48.798;10.178;2022-08-21T04:55:00;5.82;;;2.70;;
54372;SDS011;40271;48.798;10.178;2022-08-21T04:57:26;3.97;;;2.72;;
54372;SDS011;40271;48.798;10.178;2022-08-21T04:59:52;3.42;;;2.33;;
54372;SDS011;40271;48.798;10.178;2022-08-21T05:02:18;5.65;;;2.80;;
54372;SDS011;40271;48.798;10.178;2022-08-21T05:04:50;3.65;;;2.40;;
54372;SDS011;40271;48.798;10.178;2022-08-21T05:09:42;5.18;;;2.45;;
54372;SDS011;40271;48.798;10.178;2022-08-21T05:12:09;4.28;;;2.67;;
54372;SDS011;40271;48.798;10.178;2022-08-21T05:14:35;5.30;;;2.88;;
54372;SDS011;40271;48.798;10.178;2022-08-21T05:17:01;4.05;;;2.47;;
54372;SDS011;40271;48.798;10.178;2022-08-21T05:19:27;3.42;;;2.40;;
54372;SDS011;40271;48.798;10.178;2022-08-21T05:21:54;4.78;;;2.58;;
54372;SDS011;40271;48.798;10.178;2022-08-21T05:24:20;3.33;;;2.10;;
54372;SDS011;40271;48.798;10.178;2022-08-21T05:26:46;3.15;;;2.50;;
54372;SDS011;40271;48.798;10.178;2022-08-21T05:29:13;5.15;;;2.70;;
54372;SDS011;40271;48.798;10.178;2022-08-21T05:31:39;3.55;;;2.85;;
54372;SDS011;40271;48.798;10.178;2022-08-21T05:34:05;3.05;;;2.25;;
54372;SDS011;40271;48.798;10.178;2022-08-21T05:36:31;3.42;;;2.40;;
54372;SDS011;40271;48.798;10.178;2022-08-21T05:38:57;3.70;;;2.17;;
54372;SDS011;40271;48.798;10.178;2022-08-21T05:41:23;4.80;;;2.33;;
54372;SDS011;40271;48.798;10.178;2022-08-21T05:43:49;4.05;;;2.60;;
54372;SDS011;40271;48.798;10.178;2022-08-21T05:46:16;4.47;;;2.42;;
54372;SDS011;40271;48.798;10.178;2022-08-21T05:48:42;3.33;;;2.40;;
54372;SDS011;40271;48.798;10.178;2022-08-21T05:51:13;5.00;;;2.58;;
54372;SDS011;40271;48.798;10.178;2022-08-21T05:53:39;3.88;;;2.47;;
54372;SDS011;40271;48.798;10.178;2022-08-21T05:56:07;3.85;;;2.45;;
54372;SDS011;40271;48.798;10.178;2022-08-21T05:58:33;6.03;;;2.83;;
54372;SDS011;40271;48.798;10.178;2022-08-21T06:01:00;6.07;;;2.58;;
54372;SDS011;40271;48.798;10.178;2022-08-21T06:03:29;3.63;;;2.65;;
54372;SDS011;40271;48.798;10.178;2022-08-21T06:05:55;3.35;;;2.42;;
54372;SDS011;40271;48.798;10.178;2022-08-21T06:08:21;3.95;;;2.47;;
54372;SDS011;40271;48.798;10.178;2022-08-21T06:10:48;3.42;;;2.63;;
54372;SDS011;40271;48.798;10.178;2022-08-21T06:13:15;3.22;;;2.30;;
54372;SDS011;40271;48.798;10.178;2022-08-21T06:15:41;3.53;;;2.42;;
54372;SDS011;40271;48.798;10.178;2022-08-21T06:18:08;3.15;;;2.30;;
54372;SDS011;40271;48.798;10.178;2022-08-21T06:20:34;4.00;;;2.70;;
54372;SDS011;40271;48.798;10.178;2022-08-21T06:23:00;3.90;;;2.63;;
54372;SDS011;40271;48.798;10.178;2022-08-21T06:25:26;3.85;;;2.78;;
54372;SDS011;40271;48.798;10.178;2022-08-21T06:27:53;4.13;;;3.10;;
54372;SDS011;40271;48.798;10.178;2022-08-21T06:30:19;3.58;;;2.53;;
54372;SDS011;40271;48.798;10.178;2022-08-21T06:32:45;3.55;;;2.80;;
54372;SDS011;40271;48.798;10.178;2022-08-21T06:35:11;4.25;;;2.55;;
54372;SDS011;40271;48.798;10.178;2022-08-21T06:37:37;3.70;;;2.50;;
54372;SDS011;40271;48.798;10.178;2022-08-21T06:40:04;5.45;;;2.72;;
54372;SDS011;40271;48.798;10.178;2022-08-21T06:42:31;3.60;;;2.80;;
54372;SDS011;40271;48.798;10.178;2022-08-21T06:44:57;5.28;;;3.00;;
54372;SDS011;40271;48.798;10.178;2022-08-21T06:47:23;4.22;;;2.72;;
54372;SDS011;40271;48.798;10.178;2022-08-21T06:49:49;5.47;;;3.00;;
54372;SDS011;40271;48.798;10.178;2022-08-21T06:52:15;4.90;;;2.95;;
54372;SDS011;40271;48.798;10.178;2022-08-21T06:54:42;3.35;;;2.58;;
54372;SDS011;40271;48.798;10.178;2022-08-21T06:57:08;5.15;;;3.08;;
54372;SDS011;40271;48.798;10.178;2022-08-21T06:59:34;6.53;;;3.25;;
54372;SDS011;40271;48.798;10.178;2022-08-21T07:02:00;4.47;;;2.78;;
54372;SDS011;40271;48.798;10.178;2022-08-21T07:04:26;5.38;;;2.65;;
54372;SDS011;40271;48.798;10.178;2022-08-21T07:06:52;5.28;;;3.20;;
54372;SDS011;40271;48.798;10.178;2022-08-21T07:09:18;3.97;;;2.75;;
54372;SDS011;40271;48.798;10.178;2022-08-21T07:11:45;4.78;;;3.22;;
54372;SDS011;40271;48.798;10.178;2022-08-21T07:14:13;5.57;;;2.90;;
54372;SDS011;40271;48.798;10.178;2022-08-21T07:16:39;4.38;;;2.78;;
54372;SDS011;40271;48.798;10.178;2022-08-21T07:19:05;5.53;;;3.10;;
54372;SDS011;40271;48.798;10.178;2022-08-21T07:21:31;3.10;;;2.53;;
54372;SDS011;40271;48.798;10.178;2022-08-21T07:23:57;7.45;;;3.90;;
54372;SDS011;40271;48.798;10.178;2022-08-21T07:26:23;4.82;;;3.33;;
54372;SDS011;40271;48.798;10.178;2022-08-21T07:28:51;4.47;;;3.10;;
54372;SDS011;40271;48.798;10.178;2022-08-21T07:31:17;4.93;;;3.40;;
54372;SDS011;40271;48.798;10.178;2022-08-21T07:33:47;5.43;;;3.05;;
54372;SDS011;40271;48.798;10.178;2022-08-21T07:36:13;4.53;;;3.17;;
54372;SDS011;40271;48.798;10.178;2022-08-21T07:38:39;5.47;;;3.55;;
54372;SDS011;40271;48.798;10.178;2022-08-21T07:41:10;5.72;;;3.42;;
54372;SDS011;40271;48.798;10.178;2022-08-21T07:43:38;4.60;;;3.22;;
54372;SDS011;40271;48.798;10.178;2022-08-21T07:46:04;4.22;;;3.15;;
54372;SDS011;40271;48.798;10.178;2022-08-21T07:48:30;5.85;;;3.13;;
54372;SDS011;40271;48.798;10.178;2022-08-21T07:50:56;4.75;;;3.05;;
54372;SDS011;40271;48.798;10.178;2022-08-21T07:53:23;4.72;;;3.22;;
54372;SDS011;40271;48.798;10.178;2022-08-21T07:55:49;7.40;;;3.55;;
54372;SDS011;40271;48.798;10.178;2022-08-21T07:58:15;6.97;;;3.63;;
54372;SDS011;40271;48.798;10.178;2022-08-21T08:00:42;7.57;;;4.10;;
54372;SDS011;40271;48.798;10.178;2022-08-21T08:03:08;5.60;;;3.38;;
54372;SDS011;40271;48.798;10.178;2022-08-21T08:05:34;7.10;;;3.97;;
54372;SDS011;40271;48.798;10.178;2022-08-21T08:08:02;7.78;;;4.22;;
54372;SDS011;40271;48.798;10.178;2022-08-21T08:10:28;5.15;;;3.72;;
54372;SDS011;40271;48.798;10.178;2022-08-21T08:12:54;8.50;;;4.30;;
54372;SDS011;40271;48.798;10.178;2022-08-21T08:15:22;8.00;;;4.07;;
54372;SDS011;40271;48.798;10.178;2022-08-21T08:17:48;5.55;;;3.67;;
54372;SDS011;40271;48.798;10.178;2022-08-21T08:20:15;7.75;;;4.07;;
54372;SDS011;40271;48.798;10.178;2022-08-21T08:22:41;6.60;;;3.90;;
54372;SDS011;40271;48.798;10.178;2022-08-21T08:25:08;5.97;;;3.85;;
54372;SDS011;40271;48.798;10.178;2022-08-21T08:27:35;5.53;;;3.90;;
54372;SDS011;40271;48.798;10.178;2022-08-21T08:30:02;5.97;;;3.75;;
54372;SDS011;40271;48.798;10.178;2022-08-21T08:32:29;4.32;;;3.65;;
54372;SDS011;40271;48.798;10.178;2022-08-21T08:34:55;9.75;;;3.50;;
54372;SDS011;40271;48.798;10.178;2022-08-21T08:37:21;5.75;;;4.20;;
54372;SDS011;40271;48.798;10.178;2022-08-21T08:39:47;5.10;;;3.50;;
54372;SDS011;40271;48.798;10.178;2022-08-21T08:42:15;7.28;;;4.00;;
54372;SDS011;40271;48.798;10.178;2022-08-21T08:44:42;6.07;;;4.00;;
54372;SDS011;40271;48.798;10.178;2022-08-21T08:47:09;5.35;;;3.65;;
54372;SDS011;40271;48.798;10.178;2022-08-21T08:52:30;5.03;;;3.20;;
54372;SDS011;40271;48.798;10.178;2022-08-21T08:57:42;7.57;;;3.60;;
54372;SDS011;40271;48.798;10.178;2022-08-21T09:00:10;6.25;;;3.70;;
54372;SDS011;40271;48.798;10.178;2022-08-21T09:02:41;5.30;;;3.40;;
54372;SDS011;40271;48.798;10.178;2022-08-21T09:05:09;4.85;;;2.90;;
54372;SDS011;40271;48.798;10.178;2022-08-21T09:10:12;6.32;;;3.17;;
54372;SDS011;40271;48.798;10.178;2022-08-21T09:25:31;5.00;;;2.83;;
54372;SDS011;40271;48.798;10.178;2022-08-21T09:27:57;4.32;;;2.92;;
54372;SDS011;40271;48.798;10.178;2022-08-21T09:30:26;6.65;;;2.97;;
54372;SDS011;40271;48.798;10.178;2022-08-21T09:32:52;5.07;;;2.58;;
54372;SDS011;40271;48.798;10.178;2022-08-21T09:35:22;8.73;;;3.20;;
54372;SDS011;40271;48.798;10.178;2022-08-21T09:43:03;4.03;;;2.85;;
54372;SDS011;40271;48.798;10.178;2022-08-21T09:45:31;6.07;;;2.80;;
54372;SDS011;40271;48.798;10.178;2022-08-21T09:48:10;5.53;;;2.92;;
54372;SDS011;40271;48.798;10.178;2022-08-21T09:50:36;3.85;;;2.38;;
54372;SDS011;40271;48.798;10.178;2022-08-21T09:53:03;4.28;;;2.60;;
54372;SDS011;40271;48.798;10.178;2022-08-21T09:55:31;5.00;;;2.80;;
54372;SDS011;40271;48.798;10.178;2022-08-21T09:58:16;4.65;;;2.30;;
54372;SDS011;40271;48.798;10.178;2022-08-21T10:00:43;3.50;;;2.25;;
54372;SDS011;40271;48.798;10.178;2022-08-21T10:05:35;3.90;;;2.17;;
54372;SDS011;40271;48.798;10.178;2022-08-21T10:08:02;3.53;;;2.38;;
54372;SDS011;40271;48.798;10.178;2022-08-21T10:10:30;4.07;;;2.50;;
54372;SDS011;40271;48.798;10.178;2022-08-21T10:12:59;4.00;;;2.50;;
54372;SDS011;40271;48.798;10.178;2022-08-21T10:20:28;3.60;;;2.30;;
54372;SDS011;40271;48.798;10.178;2022-08-21T10:25:28;3.00;;;2.20;;
54372;SDS011;40271;48.798;10.178;2022-08-21T10:28:07;4.60;;;2.58;;
54372;SDS011;40271;48.798;10.178;2022-08-21T10:36:21;7.30;;;3.03;;
54372;SDS011;40271;48.798;10.178;2022-08-21T10:41:07;5.13;;;2.50;;
54372;SDS011;40271;48.798;10.178;2022-08-21T10:43:42;7.15;;;3.63;;
54372;SDS011;40271;48.798;10.178;2022-08-21T10:48:59;5.75;;;2.45;;
54372;SDS011;40271;48.798;10.178;2022-08-21T10:51:39;3.67;;;2.10;;
54372;SDS011;40271;48.798;10.178;2022-08-21T10:56:51;3.15;;;2.00;;
54372;SDS011;40271;48.798;10.178;2022-08-21T10:59:43;4.60;;;2.28;;
54372;SDS011;40271;48.798;10.178;2022-08-21T11:07:19;3.70;;;1.95;;
54372;SDS011;40271;48.798;10.178;2022-08-21T11:09:46;3.13;;;1.75;;
54372;SDS011;40271;48.798;10.178;2022-08-21T11:12:19;3.00;;;1.90;;
54372;SDS011;40271;48.798;10.178;2022-08-21T11:17:15;2.92;;;1.80;;
54372;SDS011;40271;48.798;10.178;2022-08-21T11:19:45;3.45;;;1.92;;
54372;SDS011;40271;48.798;10.178;2022-08-21T11:22:31;3.08;;;1.83;;
54372;SDS011;40271;48.798;10.178;2022-08-21T11:25:09;3.55;;;2.00;;
54372;SDS011;40271;48.798;10.178;2022-08-21T11:27:42;3.30;;;1.88;;
54372;SDS011;40271;48.798;10.178;2022-08-21T11:30:09;3.97;;;2.13;;
54372;SDS011;40271;48.798;10.178;2022-08-21T11:35:48;3.08;;;2.00;;
54372;SDS011;40271;48.798;10.178;2022-08-21T11:45:53;2.88;;;1.73;;
54372;SDS011;40271;48.798;10.178;2022-08-21T11:48:36;3.13;;;2.00;;
54372;SDS011;40271;48.798;10.178;2022-08-21T11:51:10;2.92;;;2.10;;
54372;SDS011;40271;48.798;10.178;2022-08-21T11:53:38;4.47;;;2.13;;
54372;SDS011;40271;48.798;10.178;2022-08-21T11:56:25;2.40;;;1.90;;
54372;SDS011;40271;48.798;10.178;2022-08-21T11:58:56;2.65;;;1.55;;
54372;SDS011;40271;48.798;10.178;2022-08-21T12:01:26;3.70;;;1.90;;
54372;SDS011;40271;48.798;10.178;2022-08-21T12:04:07;3.35;;;2.00;;
54372;SDS011;40271;48.798;10.178;2022-08-21T12:06:35;3.40;;;1.75;;
54372;SDS011;40271;48.798;10.178;2022-08-21T12:09:05;2.75;;;1.80;;
54372;SDS011;40271;48.798;10.178;2022-08-21T12:11:32;3.65;;;1.85;;
54372;SDS011;40271;48.798;10.178;2022-08-21T12:14:13;2.80;;;1.92;;
54372;SDS011;40271;48.798;10.178;2022-08-21T12:16:40;3.22;;;2.22;;
54372;SDS011;40271;48.798;10.178;2022-08-21T12:24:19;5.38;;;1.70;;
54372;SDS011;40271;48.798;10.178;2022-08-21T12:27:29;3.13;;;1.98;;
54372;SDS011;40271;48.798;10.178;2022-08-21T12:29:36;2.37;;;1.77;;
54372;SDS011;40271;48.798;10.178;2022-08-21T12:34:38;4.90;;;1.88;;
54372;SDS011;40271;48.798;10.178;2022-08-21T12:37:10;2.63;;;1.83;;
54372;SDS011;40271;48.798;10.178;2022-08-21T12:39:42;2.92;;;1.95;;
54372;SDS011;40271;48.798;10.178;2022-08-21T12:44:39;4.00;;;1.90;;
54372;SDS011;40271;48.798;10.178;2022-08-21T12:47:27;3.95;;;1.90;;
54372;SDS011;40271;48.798;10.178;2022-08-21T12:50:29;4.28;;;1.83;;
54372;SDS011;40271;48.798;10.178;2022-08-21T12:53:01;2.10;;;1.85;;
54372;SDS011;40271;48.798;10.178;2022-08-21T12:55:31;2.67;;;1.90;;
54372;SDS011;40271;48.798;10.178;2022-08-21T12:57:57;2.90;;;1.80;;
54372;SDS011;40271;48.798;10.178;2022-08-21T13:00:24;5.88;;;2.00;;
54372;SDS011;40271;48.798;10.178;2022-08-21T13:02:51;4.22;;;1.70;;
54372;SDS011;40271;48.798;10.178;2022-08-21T13:07:53;2.42;;;1.80;;
54372;SDS011;40271;48.798;10.178;2022-08-21T13:10:23;3.65;;;2.00;;
54372;SDS011;40271;48.798;10.178;2022-08-21T13:12:50;5.05;;;2.85;;
54372;SDS011;40271;48.798;10.178;2022-08-21T13:15:24;3.70;;;1.80;;
54372;SDS011;40271;48.798;10.178;2022-08-21T13:17:51;3.83;;;1.90;;
54372;SDS011;40271;48.798;10.178;2022-08-21T13:20:21;2.92;;;1.88;;
54372;SDS011;40271;48.798;10.178;2022-08-21T13:22:48;3.63;;;1.60;;
54372;SDS011;40271;48.798;10.178;2022-08-21T13:25:15;2.63;;;1.83;;
54372;SDS011;40271;48.798;10.178;2022-08-21T13:27:42;2.05;;;1.67;;
54372;SDS011;40271;48.798;10.178;2022-08-21T13:30:13;2.72;;;1.67;;
54372;SDS011;40271;48.798;10.178;2022-08-21T13:32:41;2.10;;;1.88;;
54372;SDS011;40271;48.798;10.178;2022-08-21T13:35:12;2.70;;;1.70;;
54372;SDS011;40271;48.798;10.178;2022-08-21T13:37:39;3.10;;;1.88;;
54372;SDS011;40271;48.798;10.178;2022-08-21T13:40:07;1.90;;;1.45;;
54372;SDS011;40271;48.798;10.178;2022-08-21T13:42:33;2.92;;;1.60;;
54372;SDS011;40271;48.798;10.178;2022-08-21T13:44:59;2.47;;;1.63;;
54372;SDS011;40271;48.798;10.178;2022-08-21T13:47:25;2.90;;;1.40;;
54372;SDS011;40271;48.798;10.178;2022-08-21T13:49:51;2.50;;;1.67;;
54372;SDS011;40271;48.798;10.178;2022-08-21T13:52:20;3.83;;;2.08;;
54372;SDS011;40271;48.798;10.178;2022-08-21T13:54:54;1.95;;;1.55;;
54372;SDS011;40271;48.798;10.178;2022-08-21T13:57:25;1.98;;;1.60;;
54372;SDS011;40271;48.798;10.178;2022-08-21T13:59:51;2.72;;;1.80;;
54372;SDS011;40271;48.798;10.178;2022-08-21T14:02:21;2.20;;;1.42;;
54372;SDS011;40271;48.798;10.178;2022-08-21T14:04:54;3.03;;;1.75;;
54372;SDS011;40271;48.798;10.178;2022-08-21T14:07:24;4.32;;;1.67;;
54372;SDS011;40271;48.798;10.178;2022-08-21T14:09:51;2.75;;;1.60;;
54372;SDS011;40271;48.798;10.178;2022-08-21T14:12:28;2.95;;;1.58;;
54372;SDS011;40271;48.798;10.178;2022-08-21T14:14:55;2.22;;;1.35;;
54372;SDS011;40271;48.798;10.178;2022-08-21T14:17:26;1.80;;;1.40;;
54372;SDS011;40271;48.798;10.178;2022-08-21T14:19:52;2.38;;;1.33;;
54372;SDS011;40271;48.798;10.178;2022-08-21T14:22:38;3.38;;;1.58;;
54372;SDS011;40271;48.798;10.178;2022-08-21T14:27:31;2.22;;;1.33;;
54372;SDS011;40271;48.798;10.178;2022-08-21T14:29:58;2.63;;;1.55;;
54372;SDS011;40271;48.798;10.178;2022-08-21T14:32:27;2.13;;;1.50;;
54372;SDS011;40271;48.798;10.178;2022-08-21T14:34:55;2.83;;;1.80;;
54372;SDS011;40271;48.798;10.178;2022-08-21T14:37:21;2.20;;;1.70;;
54372;SDS011;40271;48.798;10.178;2022-08-21T14:39:47;2.42;;;1.60;;
54372;SDS011;40271;48.798;10.178;2022-08-21T14:42:13;2.50;;;1.55;;
54372;SDS011;40271;48.798;10.178;2022-08-21T14:44:39;2.75;;;1.70;;
54372;SDS011;40271;48.798;10.178;2022-08-21T14:47:06;3.00;;;1.60;;
54372;SDS011;40271;48.798;10.178;2022-08-21T14:49:32;1.95;;;1.50;;
54372;SDS011;40271;48.798;10.178;2022-08-21T14:51:58;3.40;;;1.98;;
54372;SDS011;40271;48.798;10.178;2022-08-21T14:54:25;3.47;;;1.70;;
54372;SDS011;40271;48.798;10.178;2022-08-21T14:56:52;2.58;;;1.73;;
54372;SDS011;40271;48.798;10.178;2022-08-21T14:59:19;2.58;;;1.60;;
54372;SDS011;40271;48.798;10.178;2022-08-21T15:01:45;3.70;;;1.70;;
54372;SDS011;40271;48.798;10.178;2022-08-21T15:04:12;3.22;;;1.70;;
54372;SDS011;40271;48.798;10.178;2022-08-21T15:06:38;2.38;;;1.85;;
54372;SDS011;40271;48.798;10.178;2022-08-21T15:09:04;2.95;;;1.80;;
54372;SDS011;40271;48.798;10.178;2022-08-21T15:11:30;3.78;;;1.90;;
54372;SDS011;40271;48.798;10.178;2022-08-21T15:13:58;2.80;;;1.92;;
54372;SDS011;40271;48.798;10.178;2022-08-21T15:16:26;3.13;;;1.60;;
54372;SDS011;40271;48.798;10.178;2022-08-21T15:18:53;2.63;;;1.67;;
54372;SDS011;40271;48.798;10.178;2022-08-21T15:21:19;2.80;;;1.70;;
54372;SDS011;40271;48.798;10.178;2022-08-21T15:23:45;2.10;;;1.67;;
54372;SDS011;40271;48.798;10.178;2022-08-21T15:26:11;2.47;;;1.52;;
54372;SDS011;40271;48.798;10.178;2022-08-21T15:28:37;1.88;;;1.65;;
54372;SDS011;40271;48.798;10.178;2022-08-21T15:31:03;2.45;;;1.63;;
54372;SDS011;40271;48.798;10.178;2022-08-21T15:33:30;2.53;;;1.60;;
54372;SDS011;40271;48.798;10.178;2022-08-21T15:35:56;2.60;;;1.63;;
54372;SDS011;40271;48.798;10.178;2022-08-21T15:38:22;2.55;;;1.83;;
54372;SDS011;40271;48.798;10.178;2022-08-21T15:40:48;4.68;;;1.90;;
54372;SDS011;40271;48.798;10.178;2022-08-21T15:43:25;3.15;;;1.80;;
54372;SDS011;40271;48.798;10.178;2022-08-21T15:45:51;3.22;;;1.88;;
54372;SDS011;40271;48.798;10.178;2022-08-21T15:48:17;2.03;;;1.83;;
54372;SDS011;40271;48.798;10.178;2022-08-21T15:50:43;6.55;;;2.83;;
54372;SDS011;40271;48.798;10.178;2022-08-21T15:53:09;2.97;;;1.70;;
54372;SDS011;40271;48.798;10.178;2022-08-21T15:55:36;3.65;;;1.90;;
54372;SDS011;40271;48.798;10.178;2022-08-21T15:58:02;2.88;;;2.10;;
54372;SDS011;40271;48.798;10.178;2022-08-21T16:00:29;3.83;;;1.90;;
54372;SDS011;40271;48.798;10.178;2022-08-21T16:02:57;2.63;;;2.05;;
54372;SDS011;40271;48.798;10.178;2022-08-21T16:05:23;2.92;;;2.08;;